This is the latest recevied weather packets stored in our database for station/object DJ2KUA-6. If no packets are shown the sender has not sent any weather packets the latest 1 day(s).
| Time | Temp. | Humidity | Pressure | Rain* | Wind** | Luminosity | Snow |
|---|---|---|---|---|---|---|---|
| 1777986357 | 17.22° C | 78% | 1061 hPa | 0 mm | 0 m/s | - | - |
| 1777985215 | 18.33° C | 72% | 1061 hPa | 0 mm | 0 m/s | - | - |
| 1777982993 | 22.22° C | 58% | 1060 hPa | 0 mm | 0 m/s | - | - |
| 1777982937 | 22.22° C | 58% | 1060 hPa | 0 mm | 0 m/s | - | - |
| 1777981797 | 23.33° C | 57% | 1060 hPa | 0 mm | 0 m/s | - | - |
| 1777980658 | 22.78° C | 60% | 1060 hPa | 0 mm | 0 m/s | - | - |
| 1777979517 | 21.67° C | 63% | 1061 hPa | 0 mm | 0 m/s | - | - |
| 1777978377 | 20° C | 66% | 1061 hPa | 0 mm | 0 m/s | - | - |
| 1777977236 | 20° C | 65% | 1061 hPa | 0 mm | 0 m/s | - | - |
| 1777976097 | 20.56° C | 63% | 1061 hPa | 0 mm | 0 m/s | - | - |
| 1777974956 | 20.56° C | 64% | 1061 hPa | 0 mm | 0 m/s | - | - |
| 1777973818 | 19.44° C | 66% | 1061 hPa | 0 mm | 0 m/s | - | - |
| 1777972678 | 19.44° C | 67% | 1061 hPa | 0 mm | 0 m/s | - | - |
| 1777971535 | 19.44° C | 67% | 1061 hPa | 0 mm | 0 m/s | - | - |
| 1777970398 | 19.44° C | 68% | 1062 hPa | 0 mm | 0 m/s | - | - |
| 1777969256 | 19.44° C | 68% | 1062 hPa | 0 mm | 0 m/s | - | - |
| 1777968119 | 18.89° C | 69% | 1062 hPa | 0 mm | 0 m/s | - | - |
| 1777967035 | 18.33° C | 70% | 1062 hPa | 0 mm | 0 m/s | - | - |
| 1777966978 | 18.33° C | 70% | 1062 hPa | 0 mm | 0 m/s | - | - |
| 1777965839 | 18.33° C | 71% | 1062 hPa | 0 mm | 0 m/s | - | - |
| 1777963558 | 16.11° C | 77% | 1062 hPa | 0 mm | 0 m/s | - | - |
| 1777962418 | 15.56° C | 78% | 1062 hPa | 0 mm | 0 m/s | - | - |
| 1777961281 | 15.56° C | 78% | 1062 hPa | 0 mm | 0 m/s | - | - |
| 1777960136 | 15° C | 79% | 1062 hPa | 0 mm | 0 m/s | - | - |
| 1777958996 | 14.44° C | 79% | 1062 hPa | 0 mm | 0 m/s | - | - |
* Rain latest hour (hover to see other rain measurements)
** Current wind speed in m/s (hover to see current wind gust speed)